createdAt,value
2022-11-16T00:01:42.232Z,16.65
2022-11-16T00:04:12.350Z,17.13
2022-11-16T00:06:40.570Z,17.65
2022-11-16T00:09:23.593Z,16.08
2022-11-16T00:11:57.095Z,18.20
2022-11-16T00:14:27.366Z,17.38
2022-11-16T00:16:55.435Z,18.35
2022-11-16T00:19:23.661Z,18.55
2022-11-16T00:21:51.367Z,17.23
2022-11-16T00:24:20.128Z,17.83
2022-11-16T00:26:48.080Z,21.88
2022-11-16T00:29:18.650Z,19.45
2022-11-16T00:31:46.923Z,19.92
2022-11-16T00:34:14.971Z,17.50
2022-11-16T00:36:42.675Z,22.52
2022-11-16T00:39:11.908Z,20.80
2022-11-16T00:41:39.660Z,20.38
2022-11-16T00:44:07.829Z,22.42
2022-11-16T00:46:36.843Z,19.27
2022-11-16T00:49:05.490Z,20.77
2022-11-16T00:51:33.314Z,19.80
2022-11-16T00:54:01.317Z,22.30
2022-11-16T00:56:29.663Z,19.10
2022-11-16T00:58:57.350Z,22.48
2022-11-16T01:01:25.125Z,21.45
2022-11-16T01:03:54.401Z,21.15
2022-11-16T01:06:23.328Z,22.85
2022-11-16T01:08:51.461Z,23.58
2022-11-16T01:11:37.440Z,22.55
2022-11-16T01:14:08.888Z,21.23
2022-11-16T01:16:37.223Z,20.42
2022-11-16T01:19:06.696Z,22.58
2022-11-16T01:21:34.582Z,23.92
2022-11-16T01:24:02.880Z,22.63
2022-11-16T01:26:30.665Z,23.27
2022-11-16T01:28:59.324Z,23.73
2022-11-16T01:31:30.157Z,22.65
2022-11-16T01:33:58.894Z,23.95
2022-11-16T01:36:30.765Z,21.70
2022-11-16T01:39:01.696Z,22.73
2022-11-16T01:41:34.498Z,21.60
2022-11-16T01:44:07.351Z,22.90
2022-11-16T01:46:40.102Z,24.95
2022-11-16T01:49:14.859Z,24.77
2022-11-16T01:51:47.339Z,26.35
2022-11-16T01:54:17.516Z,23.02
2022-11-16T01:57:01.001Z,24.65
2022-11-16T01:59:37.234Z,28.95
2022-11-16T02:02:06.347Z,27.83
2022-11-16T02:04:34.859Z,27.85
2022-11-16T02:07:17.776Z,27.55
2022-11-16T02:09:58.944Z,25.23
2022-11-16T02:12:51.532Z,24.80
2022-11-16T02:15:28.137Z,24.67
2022-11-16T02:18:22.026Z,22.48
2022-11-16T02:21:10.180Z,25.08
2022-11-16T02:24:12.347Z,25.55
2022-11-16T02:26:51.459Z,26.50
2022-11-16T02:29:24.390Z,25.85
2022-11-16T02:31:59.332Z,28.88
2022-11-16T02:34:31.369Z,26.35
2022-11-16T02:37:02.193Z,26.67
2022-11-16T02:39:32.920Z,21.70
2022-11-16T02:42:02.405Z,27.92
2022-11-16T02:44:35.967Z,27.50
2022-11-16T02:47:08.411Z,24.27
2022-11-16T02:49:40.133Z,24.65
2022-11-16T02:52:08.836Z,27.13
2022-11-16T02:54:36.471Z,28.17
2022-11-16T02:57:28.318Z,26.88
2022-11-16T02:59:59.368Z,23.65
2022-11-16T03:02:35.463Z,28.38
2022-11-16T03:05:10.725Z,25.48
2022-11-16T03:07:49.012Z,27.52
2022-11-16T03:10:40.697Z,21.42
2022-11-16T03:13:11.659Z,25.67
2022-11-16T03:15:42.607Z,22.02
2022-11-16T03:18:17.126Z,28.45
2022-11-16T03:20:45.913Z,22.48
2022-11-16T03:23:14.488Z,30.27
2022-11-16T03:25:49.818Z,26.75
2022-11-16T03:28:24.119Z,26.17
2022-11-16T03:30:58.565Z,23.48
2022-11-16T03:33:31.754Z,24.08
2022-11-16T03:36:03.952Z,24.38
2022-11-16T03:38:35.918Z,25.90
2022-11-16T03:41:07.872Z,27.02
2022-11-16T03:43:37.730Z,28.52
2022-11-16T03:46:06.891Z,29.70
2022-11-16T03:48:36.639Z,28.73
2022-11-16T03:51:11.408Z,30.88
2022-11-16T03:53:40.858Z,27.77
2022-11-16T03:56:10.316Z,24.45
2022-11-16T03:58:39.439Z,26.75
2022-11-16T04:01:08.370Z,27.40
2022-11-16T04:03:36.101Z,23.67
2022-11-16T04:06:21.667Z,29.95
2022-11-16T04:09:07.593Z,27.00
2022-11-16T04:11:55.675Z,25.30
2022-11-16T04:14:43.035Z,24.00
2022-11-16T04:17:33.945Z,30.20
2022-11-16T04:20:19.430Z,25.35
2022-11-16T04:23:09.823Z,26.60
2022-11-16T04:25:41.157Z,24.05
2022-11-16T04:28:17.542Z,23.60
2022-11-16T04:31:09.549Z,26.50
2022-11-16T04:33:58.619Z,24.42
2022-11-16T04:36:44.716Z,30.58
2022-11-16T04:39:12.778Z,25.25
2022-11-16T04:41:58.304Z,24.10
2022-11-16T04:44:48.616Z,27.58
2022-11-16T04:47:15.985Z,24.65
2022-11-16T04:49:45.089Z,26.52
2022-11-16T04:52:12.725Z,26.08
2022-11-16T04:54:40.830Z,27.48
2022-11-16T04:57:09.571Z,27.60
2022-11-16T04:59:37.303Z,25.77
2022-11-16T05:02:11.658Z,26.92
2022-11-16T05:04:47.610Z,25.75
2022-11-16T05:07:16.239Z,25.08
2022-11-16T05:09:47.418Z,28.38
2022-11-16T05:12:17.767Z,26.30
2022-11-16T05:14:47.613Z,25.95
2022-11-16T05:17:17.942Z,24.92
2022-11-16T05:20:05.723Z,29.42
2022-11-16T05:22:38.914Z,30.45
2022-11-16T05:25:08.736Z,27.13
2022-11-16T05:27:37.468Z,25.13
2022-11-16T05:30:07.615Z,25.33
2022-11-16T05:32:35.532Z,25.23
2022-11-16T05:35:06.603Z,25.45
2022-11-16T05:37:34.334Z,26.98
2022-11-16T05:40:04.082Z,24.00
2022-11-16T05:42:40.923Z,24.63
2022-11-16T05:45:09.294Z,24.20
2022-11-16T05:47:36.915Z,27.77
2022-11-16T05:50:06.841Z,26.27
2022-11-16T05:52:39.555Z,24.23
2022-11-16T05:55:10.733Z,27.45
2022-11-16T05:57:43.786Z,27.23
2022-11-16T06:00:13.334Z,24.73
2022-11-16T06:02:46.992Z,26.52
2022-11-16T06:05:23.602Z,26.38
2022-11-16T06:07:52.321Z,27.13
2022-11-16T06:10:20.112Z,23.88
2022-11-16T06:12:50.540Z,28.08
2022-11-16T06:15:19.073Z,25.08
2022-11-16T06:17:48.168Z,25.25
2022-11-16T06:20:17.484Z,24.70
2022-11-16T06:22:47.878Z,25.13
2022-11-16T06:25:15.722Z,26.38
2022-11-16T06:27:45.000Z,26.50
2022-11-16T06:30:17.095Z,24.30
2022-11-16T06:32:45.758Z,24.42
2022-11-16T06:35:13.476Z,26.88
2022-11-16T06:37:42.477Z,24.38
2022-11-16T06:40:12.626Z,25.92
2022-11-16T06:42:43.554Z,22.50
2022-11-16T06:45:12.934Z,23.42
2022-11-16T06:47:45.271Z,26.48
2022-11-16T06:50:13.150Z,24.65
2022-11-16T06:52:40.967Z,25.27
2022-11-16T06:55:13.659Z,26.90
2022-11-16T06:57:42.424Z,26.00
2022-11-16T07:00:12.436Z,25.23
2022-11-16T07:02:40.789Z,26.13
2022-11-16T07:08:03.174Z,24.67
2022-11-16T07:10:32.356Z,27.88
2022-11-16T07:13:07.386Z,26.08
2022-11-16T07:15:37.921Z,24.52
2022-11-16T07:18:07.142Z,26.13
2022-11-16T07:20:41.049Z,24.27
2022-11-16T07:23:14.293Z,25.20
2022-11-16T07:25:47.216Z,24.48
2022-11-16T07:28:21.754Z,23.70
2022-11-16T07:30:49.501Z,25.35
2022-11-16T07:33:24.048Z,28.58
2022-11-16T07:36:13.665Z,22.88
2022-11-16T07:38:41.936Z,26.60
2022-11-16T07:41:13.621Z,24.80
2022-11-16T07:43:52.932Z,28.67
2022-11-16T07:46:46.142Z,27.15
2022-11-16T07:49:15.081Z,20.90
2022-11-16T07:51:51.404Z,27.00
2022-11-16T07:54:35.223Z,27.20
2022-11-16T07:57:04.934Z,24.25
2022-11-16T07:59:32.970Z,26.70
2022-11-16T08:02:02.501Z,28.83
2022-11-16T08:04:30.369Z,23.70
2022-11-16T08:06:59.532Z,26.08
2022-11-16T08:09:31.981Z,23.10
2022-11-16T08:11:59.645Z,27.55
2022-11-16T08:14:28.666Z,25.95
2022-11-16T08:16:57.249Z,30.88
2022-11-16T08:19:25.186Z,27.08
2022-11-16T08:21:53.800Z,24.15
2022-11-16T08:24:23.787Z,26.65
2022-11-16T08:26:54.202Z,29.75
2022-11-16T08:29:21.953Z,26.55
2022-11-16T08:31:53.015Z,29.13
2022-11-16T08:34:22.415Z,28.45
2022-11-16T08:36:53.767Z,29.17
2022-11-16T08:39:27.403Z,29.33
2022-11-16T08:41:55.212Z,26.00
2022-11-16T08:44:22.805Z,28.77
2022-11-16T08:46:57.311Z,26.05
2022-11-16T08:49:49.709Z,37.28
2022-11-16T08:52:19.027Z,27.05
2022-11-16T08:54:47.284Z,29.67
2022-11-16T08:57:15.075Z,31.17
2022-11-16T08:59:44.288Z,30.08
2022-11-16T09:02:15.834Z,26.00
2022-11-16T09:04:43.913Z,31.05
2022-11-16T09:07:11.664Z,26.92
2022-11-16T09:09:39.257Z,27.75
2022-11-16T09:12:07.416Z,27.13
2022-11-16T09:14:35.084Z,27.58
2022-11-16T09:17:02.730Z,30.77
2022-11-16T09:19:31.726Z,33.22
2022-11-16T09:21:59.392Z,32.40
2022-11-16T09:24:27.097Z,30.30
2022-11-16T09:26:56.767Z,27.27
2022-11-16T09:29:24.528Z,27.10
2022-11-16T09:31:52.128Z,28.50
2022-11-16T09:34:19.797Z,26.48
2022-11-16T09:36:48.857Z,28.45
2022-11-16T09:39:30.597Z,31.50
2022-11-16T09:42:26.558Z,31.42
2022-11-16T09:45:04.587Z,32.63
2022-11-16T09:47:45.774Z,30.33
2022-11-16T09:50:25.615Z,31.90
2022-11-16T09:52:58.246Z,28.63
2022-11-16T09:55:33.191Z,31.10
2022-11-16T09:58:07.013Z,30.50
2022-11-16T10:00:37.255Z,28.45
2022-11-16T10:03:07.783Z,33.78
2022-11-16T10:05:39.931Z,30.70
2022-11-16T10:08:14.154Z,35.50
2022-11-16T10:10:50.721Z,29.58
2022-11-16T10:13:31.028Z,33.20
2022-11-16T10:16:04.241Z,30.50
2022-11-16T10:18:45.641Z,29.98
2022-11-16T10:21:33.131Z,33.60
2022-11-16T10:24:25.374Z,32.78
2022-11-16T10:27:04.301Z,32.50
2022-11-16T10:29:45.196Z,31.70
2022-11-16T10:32:25.963Z,27.80
2022-11-16T10:34:55.197Z,35.90
2022-11-16T10:37:25.418Z,31.63
2022-11-16T10:39:54.501Z,34.08
2022-11-16T10:42:27.772Z,33.72
2022-11-16T10:44:59.257Z,32.85
2022-11-16T10:47:34.816Z,35.05
2022-11-16T10:50:05.059Z,40.45
2022-11-16T10:52:32.666Z,39.45
2022-11-16T10:55:01.661Z,34.17
2022-11-16T10:57:54.809Z,33.30
2022-11-16T11:00:35.386Z,36.10
2022-11-16T11:03:02.968Z,36.30
2022-11-16T11:05:31.303Z,36.35
2022-11-16T11:08:03.918Z,38.38
2022-11-16T11:10:34.722Z,39.08
2022-11-16T11:13:09.039Z,38.38
2022-11-16T11:15:37.323Z,30.17
2022-11-16T11:18:14.308Z,38.53
2022-11-16T11:20:45.485Z,33.55
2022-11-16T11:23:16.628Z,36.28
2022-11-16T11:25:54.021Z,35.45
2022-11-16T11:28:32.084Z,41.92
2022-11-16T11:31:01.730Z,35.83
2022-11-16T11:33:32.308Z,43.20
2022-11-16T11:36:04.330Z,43.17
2022-11-16T11:38:33.211Z,35.38
2022-11-16T11:41:05.308Z,38.38
2022-11-16T11:43:34.987Z,37.72
2022-11-16T11:46:13.057Z,42.42
2022-11-16T11:48:49.973Z,40.95
2022-11-16T11:51:25.729Z,38.75
2022-11-16T11:53:56.494Z,41.08
2022-11-16T11:56:26.978Z,45.08
2022-11-16T11:58:55.159Z,37.13
2022-11-16T12:01:56.109Z,38.05
2022-11-16T12:05:07.568Z,40.17
2022-11-16T12:07:49.226Z,41.38
2022-11-16T12:10:22.757Z,39.83
2022-11-16T12:13:02.540Z,41.25
2022-11-16T12:15:41.115Z,43.10
2022-11-16T12:18:25.997Z,39.92
2022-11-16T12:21:01.905Z,44.10
2022-11-16T12:24:05.412Z,41.38
2022-11-16T12:26:43.420Z,47.63
2022-11-16T12:29:25.476Z,44.30
2022-11-16T12:32:17.501Z,40.70
2022-11-16T12:35:05.205Z,46.72
2022-11-16T12:37:43.389Z,42.47
2022-11-16T12:40:29.858Z,42.90
2022-11-16T12:43:02.829Z,49.63
2022-11-16T12:45:46.641Z,53.97
2022-11-16T12:48:35.757Z,46.72
2022-11-16T12:51:13.806Z,47.28
2022-11-16T12:53:57.193Z,52.92
2022-11-16T12:56:35.326Z,46.35
2022-11-16T12:59:25.049Z,47.13
2022-11-16T13:02:04.278Z,51.10
2022-11-16T13:04:36.817Z,48.47
2022-11-16T13:07:11.836Z,52.13
2022-11-16T13:09:44.264Z,52.17
2022-11-16T13:12:17.089Z,48.63
2022-11-16T13:14:47.803Z,50.63
2022-11-16T13:17:21.499Z,56.15
2022-11-16T13:20:16.339Z,48.17
2022-11-16T13:22:53.224Z,45.70
2022-11-16T13:25:27.538Z,51.35
2022-11-16T13:28:00.906Z,51.15
2022-11-16T13:30:33.977Z,48.22
2022-11-16T13:33:24.361Z,56.42
2022-11-16T13:35:52.619Z,49.95
2022-11-16T13:38:50.571Z,53.00
2022-11-16T13:41:29.250Z,53.90
2022-11-16T13:43:57.107Z,52.30
2022-11-16T13:46:54.205Z,53.88
2022-11-16T13:49:30.806Z,52.60
2022-11-16T13:52:11.598Z,47.45
2022-11-16T13:54:51.186Z,48.80
2022-11-16T13:57:25.062Z,43.05
2022-11-16T14:00:08.299Z,43.03
2022-11-16T14:02:37.215Z,41.83
2022-11-16T14:05:15.077Z,40.22
2022-11-16T14:07:44.932Z,45.10
2022-11-16T14:10:33.226Z,39.38
2022-11-16T14:13:01.767Z,38.92
2022-11-16T14:15:32.668Z,35.50
2022-11-16T14:18:36.993Z,37.40
2022-11-16T14:21:14.638Z,37.42
2022-11-16T14:24:02.341Z,32.15
2022-11-16T14:26:43.429Z,34.03
2022-11-16T14:29:43.189Z,35.80
2022-11-16T14:32:20.572Z,33.13
2022-11-16T14:34:51.062Z,31.80
2022-11-16T14:37:33.348Z,30.23
2022-11-16T14:40:05.456Z,34.78
2022-11-16T14:42:54.313Z,31.73
2022-11-16T14:45:25.626Z,29.73
2022-11-16T14:47:56.342Z,29.02
2022-11-16T14:50:27.031Z,27.65
2022-11-16T14:52:59.307Z,29.42
2022-11-16T14:55:28.324Z,29.70
2022-11-16T14:58:09.599Z,33.55
2022-11-16T15:00:38.250Z,28.35
2022-11-16T15:03:07.217Z,27.20
2022-11-16T15:05:37.271Z,34.30
2022-11-16T15:08:13.994Z,34.13
2022-11-16T15:10:48.122Z,35.20
2022-11-16T15:13:21.739Z,33.92
2022-11-16T15:15:50.224Z,36.35
2022-11-16T15:18:20.169Z,34.83
2022-11-16T15:20:52.571Z,38.40
2022-11-16T15:23:23.869Z,40.83
2022-11-16T15:25:57.839Z,39.72
2022-11-16T15:28:27.512Z,33.17
2022-11-16T15:30:58.260Z,40.85
2022-11-16T15:33:28.432Z,43.70
2022-11-16T15:35:56.760Z,39.40
2022-11-16T15:38:27.915Z,44.20
2022-11-16T15:40:57.322Z,40.70
2022-11-16T15:43:29.547Z,38.75
2022-11-16T15:45:57.838Z,36.83
2022-11-16T15:48:27.461Z,35.50
2022-11-16T15:51:05.800Z,37.10
2022-11-16T15:53:40.541Z,37.50
2022-11-16T15:56:12.622Z,36.42
2022-11-16T15:58:43.118Z,31.88
2022-11-16T16:01:12.636Z,33.95
2022-11-16T16:03:45.999Z,24.27
2022-11-16T16:06:15.398Z,32.15
2022-11-16T16:08:45.301Z,35.35
2022-11-16T16:11:27.284Z,27.65
2022-11-16T16:13:59.548Z,31.08
2022-11-16T16:16:31.435Z,26.60
2022-11-16T16:19:06.715Z,24.30
2022-11-16T16:21:45.076Z,26.45
2022-11-16T16:24:35.913Z,26.38
2022-11-16T16:27:03.507Z,29.38
2022-11-16T16:29:31.090Z,25.58
2022-11-16T16:31:58.834Z,24.67
2022-11-16T16:34:26.356Z,24.60
2022-11-16T16:36:55.169Z,26.75
2022-11-16T16:39:24.260Z,23.98
2022-11-16T16:41:51.835Z,21.40
2022-11-16T16:44:19.445Z,22.08
2022-11-16T16:46:47.086Z,22.67
2022-11-16T16:49:14.659Z,23.00
2022-11-16T16:51:42.223Z,21.05
2022-11-16T16:54:12.432Z,18.33
2022-11-16T16:56:41.449Z,21.13
2022-11-16T16:59:09.157Z,18.13
2022-11-16T17:01:36.890Z,23.65
2022-11-16T17:04:04.535Z,20.73
2022-11-16T17:06:32.302Z,22.05
2022-11-16T17:09:00.022Z,16.40
2022-11-16T17:11:28.852Z,17.42
2022-11-16T17:13:57.916Z,18.67
2022-11-16T17:16:25.805Z,18.52
2022-11-16T17:18:55.803Z,15.18
2022-11-16T17:21:23.487Z,16.92
2022-11-16T17:23:51.225Z,18.55
2022-11-16T17:26:20.147Z,16.90
2022-11-16T17:28:47.779Z,17.35
2022-11-16T17:31:17.423Z,17.45
2022-11-16T17:33:45.053Z,19.60
2022-11-16T17:36:14.051Z,18.25
2022-11-16T17:38:44.187Z,15.60
2022-11-16T17:41:22.831Z,16.73
2022-11-16T17:43:53.491Z,14.70
2022-11-16T17:46:24.193Z,15.77
2022-11-16T17:48:52.179Z,14.38
2022-11-16T17:51:22.067Z,17.98
2022-11-16T17:53:50.619Z,14.55
2022-11-16T17:56:19.606Z,15.15
2022-11-16T17:58:49.945Z,13.88
2022-11-16T18:01:17.705Z,14.30
2022-11-16T18:03:50.551Z,11.73
2022-11-16T18:06:20.574Z,11.68
2022-11-16T18:08:49.020Z,10.55
2022-11-16T18:11:19.553Z,15.02
2022-11-16T18:13:48.200Z,12.93
2022-11-16T18:16:18.053Z,13.70
2022-11-16T18:18:47.977Z,11.27
2022-11-16T18:21:20.843Z,13.25
2022-11-16T18:23:48.881Z,11.32
2022-11-16T18:26:22.964Z,11.40
2022-11-16T18:28:51.288Z,12.80
2022-11-16T18:31:20.794Z,12.27
2022-11-16T18:33:50.082Z,10.60
2022-11-16T18:36:18.558Z,10.77
2022-11-16T18:38:46.227Z,13.38
2022-11-16T18:41:19.483Z,10.43
2022-11-16T18:43:52.355Z,9.95
2022-11-16T18:46:20.413Z,11.65
2022-11-16T18:48:49.389Z,11.35
2022-11-16T18:51:18.327Z,12.23
2022-11-16T18:53:46.244Z,12.40
2022-11-16T18:56:14.346Z,14.00
2022-11-16T18:58:50.739Z,11.20
2022-11-16T19:01:20.545Z,12.52
2022-11-16T19:03:49.701Z,14.02
2022-11-16T19:06:18.011Z,12.50
2022-11-16T19:08:51.777Z,14.45
2022-11-16T19:11:23.737Z,15.50
2022-11-16T19:13:54.581Z,14.93
2022-11-16T19:16:22.973Z,10.90
2022-11-16T19:18:51.947Z,13.18
2022-11-16T19:21:20.089Z,14.25
2022-11-16T19:23:49.319Z,15.00
2022-11-16T19:26:18.924Z,13.48
2022-11-16T19:28:48.692Z,13.85
2022-11-16T19:31:18.351Z,13.38
2022-11-16T19:33:46.804Z,14.75
2022-11-16T19:36:18.535Z,14.55
2022-11-16T19:38:47.766Z,15.45
2022-11-16T19:41:16.815Z,15.45
2022-11-16T19:43:44.583Z,19.75
2022-11-16T19:46:16.496Z,14.43
2022-11-16T19:48:44.959Z,11.65
2022-11-16T19:51:14.114Z,16.98
2022-11-16T19:53:43.020Z,16.05
2022-11-16T19:56:12.610Z,15.82
2022-11-16T19:58:40.192Z,15.35
2022-11-16T20:01:19.148Z,14.98
2022-11-16T20:03:48.320Z,13.55
2022-11-16T20:06:17.575Z,15.38
2022-11-16T20:08:50.505Z,13.02
2022-11-16T20:11:20.387Z,12.13
2022-11-16T20:13:49.003Z,13.85
2022-11-16T20:16:18.199Z,15.18
2022-11-16T20:18:46.276Z,13.82
2022-11-16T20:21:19.403Z,15.15
2022-11-16T20:23:48.348Z,12.52
2022-11-16T20:26:16.201Z,12.63
2022-11-16T20:28:44.911Z,14.38
2022-11-16T20:31:14.456Z,16.08
2022-11-16T20:33:42.751Z,15.02
2022-11-16T20:36:14.993Z,14.23
2022-11-16T20:38:42.570Z,13.65
2022-11-16T20:41:13.837Z,13.40
2022-11-16T20:43:42.578Z,14.77
2022-11-16T20:46:12.257Z,13.48
2022-11-16T20:48:41.406Z,14.07
2022-11-16T20:51:11.005Z,12.18
2022-11-16T20:53:38.737Z,13.85
2022-11-16T20:56:07.553Z,12.45
2022-11-16T20:58:36.605Z,12.43
2022-11-16T21:01:05.947Z,12.40
2022-11-16T21:03:34.374Z,12.70
2022-11-16T21:06:02.321Z,11.02
2022-11-16T21:08:30.572Z,10.00
2022-11-16T21:10:58.271Z,11.13
2022-11-16T21:13:43.917Z,10.15
2022-11-16T21:16:15.361Z,10.65
2022-11-16T21:18:42.990Z,10.90
2022-11-16T21:21:13.265Z,10.75
2022-11-16T21:23:43.020Z,14.85
2022-11-16T21:26:12.558Z,10.32
2022-11-16T21:28:40.867Z,10.45
2022-11-16T21:31:11.079Z,9.05
2022-11-16T21:33:40.188Z,10.07
2022-11-16T21:36:10.957Z,12.50
2022-11-16T21:38:38.661Z,10.13
2022-11-16T21:41:07.276Z,9.82
2022-11-16T21:43:36.662Z,10.13
2022-11-16T21:46:06.364Z,9.52
2022-11-16T21:48:37.477Z,7.70
2022-11-16T21:51:10.916Z,8.60
2022-11-16T21:53:38.916Z,6.95
2022-11-16T21:56:12.724Z,9.63
2022-11-16T21:58:40.514Z,10.30
2022-11-16T22:01:08.629Z,9.13
2022-11-16T22:03:36.798Z,10.45
2022-11-16T22:06:25.163Z,6.80
2022-11-16T22:08:52.826Z,6.32
2022-11-16T22:11:23.544Z,9.68
2022-11-16T22:13:53.008Z,6.13
2022-11-16T22:16:23.327Z,7.45
2022-11-16T22:18:52.061Z,8.00
2022-11-16T22:21:21.134Z,6.40
2022-11-16T22:23:48.822Z,5.90
2022-11-16T22:26:16.831Z,7.38
2022-11-16T22:28:46.505Z,7.45
2022-11-16T22:31:15.510Z,5.15
2022-11-16T22:33:43.467Z,6.13
2022-11-16T22:36:11.848Z,6.03
2022-11-16T22:38:43.040Z,6.03
2022-11-16T22:41:13.300Z,5.47
2022-11-16T22:43:40.967Z,4.93
2022-11-16T22:46:11.947Z,6.07
2022-11-16T22:48:41.059Z,5.93
2022-11-16T22:51:16.151Z,6.80
2022-11-16T22:53:45.242Z,5.38
2022-11-16T22:56:13.142Z,5.20
2022-11-16T22:58:41.133Z,5.57
2022-11-16T23:01:10.125Z,6.10
2022-11-16T23:03:38.672Z,4.57
2022-11-16T23:06:06.900Z,4.20
2022-11-16T23:08:35.129Z,4.20
2022-11-16T23:11:20.507Z,4.38
2022-11-16T23:14:06.810Z,3.13
2022-11-16T23:16:34.665Z,4.07
2022-11-16T23:19:02.323Z,4.43
2022-11-16T23:21:47.498Z,3.85
2022-11-16T23:24:34.996Z,4.35
2022-11-16T23:27:22.771Z,4.63
2022-11-16T23:29:50.727Z,5.88
2022-11-16T23:32:18.336Z,4.22
2022-11-16T23:34:45.945Z,4.28
2022-11-16T23:37:13.499Z,4.43
2022-11-16T23:39:41.055Z,4.20
2022-11-16T23:42:28.293Z,3.17
2022-11-16T23:44:56.027Z,3.92
2022-11-16T23:47:23.898Z,4.15
2022-11-16T23:49:51.484Z,4.90
2022-11-16T23:52:19.045Z,4.35
2022-11-16T23:54:46.872Z,3.47
2022-11-16T23:57:15.809Z,4.80
2022-11-16T23:59:43.398Z,5.22
